sensor_id;sensor_type;location;lat;lon;timestamp;pressure;altitude;pressure_sealevel;temperature;humidity
9110;BME280;4590;51.462;6.692;2023-02-18T00:00:21;102023.59;;;13.17;68.65
9110;BME280;4590;51.462;6.692;2023-02-18T00:02:48;102020.53;;;13.13;68.73
9110;BME280;4590;51.462;6.692;2023-02-18T00:05:14;102013.91;;;13.14;68.79
9110;BME280;4590;51.462;6.692;2023-02-18T00:07:39;102012.25;;;13.13;68.69
9110;BME280;4590;51.462;6.692;2023-02-18T00:10:07;102012.00;;;13.10;68.86
9110;BME280;4590;51.462;6.692;2023-02-18T00:12:33;102004.84;;;13.09;69.19
9110;BME280;4590;51.462;6.692;2023-02-18T00:14:58;101997.38;;;13.09;68.95
9110;BME280;4590;51.462;6.692;2023-02-18T00:17:24;102004.00;;;13.08;68.93
9110;BME280;4590;51.462;6.692;2023-02-18T00:19:50;101991.00;;;13.09;69.14
9110;BME280;4590;51.462;6.692;2023-02-18T00:22:15;101996.53;;;13.09;69.10
9110;BME280;4590;51.462;6.692;2023-02-18T00:24:41;101993.78;;;13.09;68.95
9110;BME280;4590;51.462;6.692;2023-02-18T00:27:06;101999.31;;;13.09;69.03
9110;BME280;4590;51.462;6.692;2023-02-18T00:29:31;101992.94;;;13.08;68.94
9110;BME280;4590;51.462;6.692;2023-02-18T00:31:57;101992.94;;;13.08;69.11
9110;BME280;4590;51.462;6.692;2023-02-18T00:34:22;101997.66;;;13.08;69.12
9110;BME280;4590;51.462;6.692;2023-02-18T00:36:47;102002.06;;;13.09;69.25
9110;BME280;4590;51.462;6.692;2023-02-18T00:39:12;101995.22;;;13.06;69.38
9110;BME280;4590;51.462;6.692;2023-02-18T00:41:38;101981.41;;;13.06;69.18
9110;BME280;4590;51.462;6.692;2023-02-18T00:44:04;101977.28;;;13.04;69.40
9110;BME280;4590;51.462;6.692;2023-02-18T00:46:29;101978.63;;;13.06;69.24
9110;BME280;4590;51.462;6.692;2023-02-18T00:48:55;101969.00;;;13.04;69.27
9110;BME280;4590;51.462;6.692;2023-02-18T00:51:21;101966.75;;;13.06;69.33
9110;BME280;4590;51.462;6.692;2023-02-18T00:53:47;101965.09;;;13.05;69.45
9110;BME280;4590;51.462;6.692;2023-02-18T00:56:13;101969.56;;;13.00;69.40
9110;BME280;4590;51.462;6.692;2023-02-18T00:58:38;101956.03;;;12.99;69.71
9110;BME280;4590;51.462;6.692;2023-02-18T01:01:06;101956.34;;;12.97;69.82
9110;BME280;4590;51.462;6.692;2023-02-18T01:03:31;101954.69;;;12.96;69.63
9110;BME280;4590;51.462;6.692;2023-02-18T01:05:56;101957.16;;;12.98;69.64
9110;BME280;4590;51.462;6.692;2023-02-18T01:08:22;101951.69;;;12.93;69.76
9110;BME280;4590;51.462;6.692;2023-02-18T01:10:49;101953.56;;;12.97;69.71
9110;BME280;4590;51.462;6.692;2023-02-18T01:13:16;101953.03;;;12.95;69.61
9110;BME280;4590;51.462;6.692;2023-02-18T01:15:42;101948.91;;;12.93;69.83
9110;BME280;4590;51.462;6.692;2023-02-18T01:18:07;101953.63;;;12.92;69.69
9110;BME280;4590;51.462;6.692;2023-02-18T01:20:34;101949.53;;;12.90;70.06
9110;BME280;4590;51.462;6.692;2023-02-18T01:23:00;101956.16;;;12.89;70.11
9110;BME280;4590;51.462;6.692;2023-02-18T01:25:25;101947.06;;;12.88;69.99
9110;BME280;4590;51.462;6.692;2023-02-18T01:27:50;101944.88;;;12.85;70.28
9110;BME280;4590;51.462;6.692;2023-02-18T01:30:16;101938.75;;;12.88;70.20
9110;BME280;4590;51.462;6.692;2023-02-18T01:32:42;101939.59;;;12.89;70.08
9110;BME280;4590;51.462;6.692;2023-02-18T01:35:12;101928.25;;;12.90;69.99
9110;BME280;4590;51.462;6.692;2023-02-18T01:37:38;101931.00;;;12.90;70.18
9110;BME280;4590;51.462;6.692;2023-02-18T01:40:04;101917.19;;;12.90;69.98
9110;BME280;4590;51.462;6.692;2023-02-18T01:42:30;101916.38;;;12.90;70.04
9110;BME280;4590;51.462;6.692;2023-02-18T01:47:52;101917.78;;;12.87;70.30
9110;BME280;4590;51.462;6.692;2023-02-18T01:50:17;101919.44;;;12.88;70.28
9110;BME280;4590;51.462;6.692;2023-02-18T01:52:42;101916.66;;;12.88;70.39
9110;BME280;4590;51.462;6.692;2023-02-18T01:55:08;101917.53;;;12.84;70.44
9110;BME280;4590;51.462;6.692;2023-02-18T01:57:35;101915.06;;;12.82;70.35
9110;BME280;4590;51.462;6.692;2023-02-18T02:00:05;101910.59;;;12.86;70.33
9110;BME280;4590;51.462;6.692;2023-02-18T02:02:34;101913.38;;;12.86;70.23
9110;BME280;4590;51.462;6.692;2023-02-18T02:05:01;101907.31;;;12.84;70.31
9110;BME280;4590;51.462;6.692;2023-02-18T02:07:27;101902.66;;;12.80;70.75
9110;BME280;4590;51.462;6.692;2023-02-18T02:09:55;101910.34;;;12.83;70.59
9110;BME280;4590;51.462;6.692;2023-02-18T02:12:47;101897.13;;;12.80;70.51
9110;BME280;4590;51.462;6.692;2023-02-18T02:15:36;101898.53;;;12.77;70.48
9110;BME280;4590;51.462;6.692;2023-02-18T02:27:07;101885.03;;;12.76;70.70
9110;BME280;4590;51.462;6.692;2023-02-18T02:35:03;101885.25;;;12.79;70.47
9110;BME280;4590;51.462;6.692;2023-02-18T02:40:24;101877.78;;;12.80;70.77
9110;BME280;4590;51.462;6.692;2023-02-18T02:43:11;101875.13;;;12.75;70.90
9110;BME280;4590;51.462;6.692;2023-02-18T02:45:53;101874.59;;;12.73;71.02
9110;BME280;4590;51.462;6.692;2023-02-18T02:51:06;101877.91;;;12.70;71.62
9110;BME280;4590;51.462;6.692;2023-02-18T02:53:35;101868.28;;;12.67;71.46
9110;BME280;4590;51.462;6.692;2023-02-18T02:56:00;101869.41;;;12.66;71.49
9110;BME280;4590;51.462;6.692;2023-02-18T02:58:25;101872.69;;;12.68;71.37
9110;BME280;4590;51.462;6.692;2023-02-18T03:04:04;101850.66;;;12.63;72.05
9110;BME280;4590;51.462;6.692;2023-02-18T03:06:42;101848.41;;;12.65;72.06
9110;BME280;4590;51.462;6.692;2023-02-18T03:09:23;101845.13;;;12.63;72.05
9110;BME280;4590;51.462;6.692;2023-02-18T03:12:03;101843.78;;;12.60;72.61
9110;BME280;4590;51.462;6.692;2023-02-18T03:14:45;101830.63;;;12.52;73.45
9110;BME280;4590;51.462;6.692;2023-02-18T03:17:20;101832.22;;;12.58;72.47
9110;BME280;4590;51.462;6.692;2023-02-18T03:19:53;101822.00;;;12.59;72.19
9110;BME280;4590;51.462;6.692;2023-02-18T03:22:24;101820.34;;;12.58;72.66
9110;BME280;4590;51.462;6.692;2023-02-18T03:24:53;101814.28;;;12.56;72.83
9110;BME280;4590;51.462;6.692;2023-02-18T03:30:00;101807.75;;;12.47;73.59
9110;BME280;4590;51.462;6.692;2023-02-18T03:32:28;101805.78;;;12.52;73.24
9110;BME280;4590;51.462;6.692;2023-02-18T03:34:59;101795.06;;;12.46;73.41
9110;BME280;4590;51.462;6.692;2023-02-18T03:37:26;101791.19;;;12.47;73.67
9110;BME280;4590;51.462;6.692;2023-02-18T03:39:55;101785.38;;;12.48;73.36
9110;BME280;4590;51.462;6.692;2023-02-18T03:42:26;101786.22;;;12.49;73.36
9110;BME280;4590;51.462;6.692;2023-02-18T03:44:52;101777.09;;;12.48;73.62
9110;BME280;4590;51.462;6.692;2023-02-18T03:47:17;101797.53;;;12.47;73.34
9110;BME280;4590;51.462;6.692;2023-02-18T03:49:43;101780.97;;;12.47;73.55
9110;BME280;4590;51.462;6.692;2023-02-18T03:52:08;101777.94;;;12.49;73.51
9110;BME280;4590;51.462;6.692;2023-02-18T03:54:33;101767.47;;;12.46;73.72
9110;BME280;4590;51.462;6.692;2023-02-18T03:56:59;101770.00;;;12.42;73.95
9110;BME280;4590;51.462;6.692;2023-02-18T03:59:24;101766.94;;;12.44;73.70
9110;BME280;4590;51.462;6.692;2023-02-18T04:01:49;101758.66;;;12.44;73.65
9110;BME280;4590;51.462;6.692;2023-02-18T04:04:14;101753.13;;;12.44;73.74
9110;BME280;4590;51.462;6.692;2023-02-18T04:06:40;101758.16;;;12.42;73.78
9110;BME280;4590;51.462;6.692;2023-02-18T04:09:05;101755.41;;;12.42;73.97
9110;BME280;4590;51.462;6.692;2023-02-18T04:11:37;101753.13;;;12.44;73.54
9110;BME280;4590;51.462;6.692;2023-02-18T04:14:02;101760.84;;;12.47;73.85
9110;BME280;4590;51.462;6.692;2023-02-18T04:16:28;101755.84;;;12.49;73.60
9110;BME280;4590;51.462;6.692;2023-02-18T04:18:53;101750.16;;;12.40;74.03
9110;BME280;4590;51.462;6.692;2023-02-18T04:21:18;101742.34;;;12.47;73.41
9110;BME280;4590;51.462;6.692;2023-02-18T04:23:43;101745.69;;;12.44;73.70
9110;BME280;4590;51.462;6.692;2023-02-18T04:26:09;101750.91;;;12.46;73.59
9110;BME280;4590;51.462;6.692;2023-02-18T04:28:34;101751.72;;;12.46;73.89
9110;BME280;4590;51.462;6.692;2023-02-18T04:31:00;101746.00;;;12.43;73.96
9110;BME280;4590;51.462;6.692;2023-02-18T04:33:25;101734.34;;;12.46;73.74
9110;BME280;4590;51.462;6.692;2023-02-18T04:35:50;101730.56;;;12.42;74.06
9110;BME280;4590;51.462;6.692;2023-02-18T04:38:15;101726.69;;;12.43;74.12
9110;BME280;4590;51.462;6.692;2023-02-18T04:40:40;101730.84;;;12.40;74.17
9110;BME280;4590;51.462;6.692;2023-02-18T04:43:06;101726.44;;;12.39;74.20
9110;BME280;4590;51.462;6.692;2023-02-18T04:45:31;101725.09;;;12.37;74.40
9110;BME280;4590;51.462;6.692;2023-02-18T04:47:56;101725.38;;;12.35;74.63
9110;BME280;4590;51.462;6.692;2023-02-18T04:50:22;101720.69;;;12.36;74.52
9110;BME280;4590;51.462;6.692;2023-02-18T04:52:47;101717.38;;;12.34;74.51
9110;BME280;4590;51.462;6.692;2023-02-18T04:55:13;101712.97;;;12.33;74.56
9110;BME280;4590;51.462;6.692;2023-02-18T04:57:38;101716.03;;;12.31;74.96
9110;BME280;4590;51.462;6.692;2023-02-18T05:00:05;101708.66;;;12.26;74.79
9110;BME280;4590;51.462;6.692;2023-02-18T05:02:31;101706.19;;;12.25;75.17
9110;BME280;4590;51.462;6.692;2023-02-18T05:04:57;101711.47;;;12.21;75.47
9110;BME280;4590;51.462;6.692;2023-02-18T05:07:22;101699.59;;;12.21;75.19
9110;BME280;4590;51.462;6.692;2023-02-18T05:09:48;101702.91;;;12.23;75.34
9110;BME280;4590;51.462;6.692;2023-02-18T05:12:13;101696.03;;;12.20;75.23
9110;BME280;4590;51.462;6.692;2023-02-18T05:14:38;101692.19;;;12.16;75.49
9110;BME280;4590;51.462;6.692;2023-02-18T05:17:03;101696.06;;;12.15;75.67
9110;BME280;4590;51.462;6.692;2023-02-18T05:19:29;101685.34;;;12.14;75.70
9110;BME280;4590;51.462;6.692;2023-02-18T05:21:54;101693.91;;;12.12;75.62
9110;BME280;4590;51.462;6.692;2023-02-18T05:24:19;101672.97;;;12.11;75.77
9110;BME280;4590;51.462;6.692;2023-02-18T05:26:44;101674.13;;;12.05;76.28
9110;BME280;4590;51.462;6.692;2023-02-18T05:29:10;101675.19;;;12.09;75.85
9110;BME280;4590;51.462;6.692;2023-02-18T05:31:35;101670.78;;;12.08;75.83
9110;BME280;4590;51.462;6.692;2023-02-18T05:34:02;101661.47;;;12.04;76.20
9110;BME280;4590;51.462;6.692;2023-02-18T05:36:27;101667.78;;;12.05;76.22
9110;BME280;4590;51.462;6.692;2023-02-18T05:38:52;101652.06;;;12.05;75.92
9110;BME280;4590;51.462;6.692;2023-02-18T05:41:18;101652.88;;;12.06;75.71
9110;BME280;4590;51.462;6.692;2023-02-18T05:43:43;101648.50;;;12.05;75.91
9110;BME280;4590;51.462;6.692;2023-02-18T05:46:27;101638.84;;;12.02;76.31
9110;BME280;4590;51.462;6.692;2023-02-18T05:48:52;101639.16;;;12.01;76.17
9110;BME280;4590;51.462;6.692;2023-02-18T05:51:17;101642.19;;;11.99;76.28
9110;BME280;4590;51.462;6.692;2023-02-18T05:53:43;101631.97;;;12.00;75.98
9110;BME280;4590;51.462;6.692;2023-02-18T05:56:08;101637.22;;;12.01;76.07
9110;BME280;4590;51.462;6.692;2023-02-18T05:58:33;101633.72;;;11.96;76.61
9110;BME280;4590;51.462;6.692;2023-02-18T06:00:58;101642.28;;;11.94;76.62
9110;BME280;4590;51.462;6.692;2023-02-18T06:03:24;101625.78;;;11.89;76.50
9110;BME280;4590;51.462;6.692;2023-02-18T06:05:50;101631.81;;;11.91;76.77
9110;BME280;4590;51.462;6.692;2023-02-18T06:08:15;101631.53;;;11.92;76.65
9110;BME280;4590;51.462;6.692;2023-02-18T06:10:40;101624.13;;;11.88;76.70
9110;BME280;4590;51.462;6.692;2023-02-18T06:13:06;101624.66;;;11.90;76.78
9110;BME280;4590;51.462;6.692;2023-02-18T06:15:31;101623.78;;;11.94;76.42
9110;BME280;4590;51.462;6.692;2023-02-18T06:17:56;101619.69;;;11.92;76.76
9110;BME280;4590;51.462;6.692;2023-02-18T06:20:22;101623.84;;;11.89;76.94
9110;BME280;4590;51.462;6.692;2023-02-18T06:22:47;101612.88;;;11.84;77.08
9110;BME280;4590;51.462;6.692;2023-02-18T06:25:12;101620.25;;;11.89;77.01
9110;BME280;4590;51.462;6.692;2023-02-18T06:27:38;101610.88;;;11.90;76.66
9110;BME280;4590;51.462;6.692;2023-02-18T06:30:04;101613.63;;;11.90;76.94
9110;BME280;4590;51.462;6.692;2023-02-18T06:32:29;101626.84;;;11.93;76.72
9110;BME280;4590;51.462;6.692;2023-02-18T06:34:54;101626.84;;;11.93;76.53
9110;BME280;4590;51.462;6.692;2023-02-18T06:37:20;101627.13;;;11.91;76.86
9110;BME280;4590;51.462;6.692;2023-02-18T06:39:45;101635.16;;;11.88;76.53
9110;BME280;4590;51.462;6.692;2023-02-18T06:42:10;101630.47;;;11.88;76.52
9110;BME280;4590;51.462;6.692;2023-02-18T06:44:36;101639.03;;;11.87;76.49
9110;BME280;4590;51.462;6.692;2023-02-18T06:47:01;101627.47;;;11.85;76.99
9110;BME280;4590;51.462;6.692;2023-02-18T06:49:26;101644.56;;;11.87;76.49
9110;BME280;4590;51.462;6.692;2023-02-18T06:51:52;101645.94;;;11.84;76.88
9110;BME280;4590;51.462;6.692;2023-02-18T06:54:17;101647.34;;;11.82;76.79
9110;BME280;4590;51.462;6.692;2023-02-18T06:56:42;101639.69;;;11.79;77.03
9110;BME280;4590;51.462;6.692;2023-02-18T06:59:08;101641.09;;;11.76;77.07
9110;BME280;4590;51.462;6.692;2023-02-18T07:01:33;101630.31;;;11.80;77.02
9110;BME280;4590;51.462;6.692;2023-02-18T07:03:58;101635.34;;;11.68;77.85
9110;BME280;4590;51.462;6.692;2023-02-18T07:06:24;101628.38;;;11.75;77.13
9110;BME280;4590;51.462;6.692;2023-02-18T07:08:49;101627.31;;;11.76;77.08
9110;BME280;4590;51.462;6.692;2023-02-18T07:11:14;101633.09;;;11.75;77.24
9110;BME280;4590;51.462;6.692;2023-02-18T07:13:39;101625.63;;;11.75;77.33
9110;BME280;4590;51.462;6.692;2023-02-18T07:16:05;101618.22;;;11.76;77.26
9110;BME280;4590;51.462;6.692;2023-02-18T07:18:30;101627.31;;;11.76;76.83
9110;BME280;4590;51.462;6.692;2023-02-18T07:20:55;101641.94;;;11.72;77.19
9110;BME280;4590;51.462;6.692;2023-02-18T07:23:21;101648.56;;;11.71;77.23
9110;BME280;4590;51.462;6.692;2023-02-18T07:25:46;101646.38;;;11.68;77.29
9110;BME280;4590;51.462;6.692;2023-02-18T07:28:11;101655.19;;;11.70;77.43
9110;BME280;4590;51.462;6.692;2023-02-18T07:30:37;101650.50;;;11.70;77.14
9110;BME280;4590;51.462;6.692;2023-02-18T07:33:02;101644.69;;;11.72;76.84
9110;BME280;4590;51.462;6.692;2023-02-18T07:35:27;101635.88;;;11.70;77.22
9110;BME280;4590;51.462;6.692;2023-02-18T07:37:53;101656.25;;;11.74;76.91
9110;BME280;4590;51.462;6.692;2023-02-18T07:40:20;101662.59;;;11.74;76.88
9110;BME280;4590;51.462;6.692;2023-02-18T07:42:46;101669.19;;;11.78;76.53
9110;BME280;4590;51.462;6.692;2023-02-18T07:45:12;101652.88;;;11.82;76.34
9110;BME280;4590;51.462;6.692;2023-02-18T07:47:37;101656.16;;;11.84;76.43
9110;BME280;4590;51.462;6.692;2023-02-18T07:50:04;101649.81;;;11.83;76.23
9110;BME280;4590;51.462;6.692;2023-02-18T07:52:29;101651.75;;;11.83;76.37
9110;BME280;4590;51.462;6.692;2023-02-18T07:54:55;101652.28;;;11.85;76.37
9110;BME280;4590;51.462;6.692;2023-02-18T07:57:20;101655.88;;;11.85;76.44
9110;BME280;4590;51.462;6.692;2023-02-18T07:59:45;101663.03;;;11.86;76.05
9110;BME280;4590;51.462;6.692;2023-02-18T08:02:17;101668.59;;;11.81;76.46
9110;BME280;4590;51.462;6.692;2023-02-18T08:04:43;101680.97;;;11.84;76.23
9110;BME280;4590;51.462;6.692;2023-02-18T08:07:12;101681.25;;;11.82;76.20
9110;BME280;4590;51.462;6.692;2023-02-18T08:09:37;101684.03;;;11.82;75.72
9110;BME280;4590;51.462;6.692;2023-02-18T08:12:03;101687.97;;;11.76;76.14
9110;BME280;4590;51.462;6.692;2023-02-18T08:14:28;101687.16;;;11.76;75.94
9110;BME280;4590;51.462;6.692;2023-02-18T08:16:53;101691.25;;;11.78;75.83
9110;BME280;4590;51.462;6.692;2023-02-18T08:19:19;101673.91;;;11.78;75.80
9110;BME280;4590;51.462;6.692;2023-02-18T08:21:44;101674.44;;;11.80;75.95
9110;BME280;4590;51.462;6.692;2023-02-18T08:24:10;101667.78;;;11.81;75.94
9110;BME280;4590;51.462;6.692;2023-02-18T08:26:35;101670.84;;;11.79;75.97
9110;BME280;4590;51.462;6.692;2023-02-18T08:29:00;101667.84;;;11.76;76.02
9110;BME280;4590;51.462;6.692;2023-02-18T08:31:28;101679.63;;;11.81;75.85
9110;BME280;4590;51.462;6.692;2023-02-18T08:33:54;101675.53;;;11.79;75.16
9110;BME280;4590;51.462;6.692;2023-02-18T08:36:20;101678.28;;;11.79;75.21
9110;BME280;4590;51.462;6.692;2023-02-18T08:38:46;101683.28;;;11.77;75.07
9110;BME280;4590;51.462;6.692;2023-02-18T08:41:11;101683.00;;;11.78;75.20
9110;BME280;4590;51.462;6.692;2023-02-18T08:43:38;101689.03;;;11.75;74.93
9110;BME280;4590;51.462;6.692;2023-02-18T08:46:04;101680.53;;;11.72;74.90
9110;BME280;4590;51.462;6.692;2023-02-18T08:48:29;101681.88;;;11.74;74.82
9110;BME280;4590;51.462;6.692;2023-02-18T08:50:54;101673.38;;;11.71;74.63
9110;BME280;4590;51.462;6.692;2023-02-18T08:53:20;101679.75;;;11.66;74.49
9110;BME280;4590;51.462;6.692;2023-02-18T08:55:45;101689.66;;;11.67;74.48
9110;BME280;4590;51.462;6.692;2023-02-18T08:58:11;101680.63;;;11.62;74.13
9110;BME280;4590;51.462;6.692;2023-02-18T09:00:38;101677.00;;;11.66;74.25
9110;BME280;4590;51.462;6.692;2023-02-18T09:03:04;101674.84;;;11.63;73.74
9110;BME280;4590;51.462;6.692;2023-02-18T09:05:30;101677.91;;;11.56;73.97
9110;BME280;4590;51.462;6.692;2023-02-18T09:07:55;101667.44;;;11.58;73.74
9110;BME280;4590;51.462;6.692;2023-02-18T09:10:21;101668.25;;;11.59;73.60
9110;BME280;4590;51.462;6.692;2023-02-18T09:12:46;101666.84;;;11.62;73.15
9110;BME280;4590;51.462;6.692;2023-02-18T09:15:11;101667.44;;;11.58;72.92
9110;BME280;4590;51.462;6.692;2023-02-18T09:17:36;101674.06;;;11.57;72.85
9110;BME280;4590;51.462;6.692;2023-02-18T09:20:02;101679.00;;;11.60;72.66
9110;BME280;4590;51.462;6.692;2023-02-18T09:22:28;101675.13;;;11.62;72.86
9110;BME280;4590;51.462;6.692;2023-02-18T09:24:53;101677.59;;;11.63;72.61
9110;BME280;4590;51.462;6.692;2023-02-18T09:27:18;101676.78;;;11.63;72.59
9110;BME280;4590;51.462;6.692;2023-02-18T09:29:44;101679.53;;;11.63;72.22
9110;BME280;4590;51.462;6.692;2023-02-18T09:32:10;101681.22;;;11.58;72.06
9110;BME280;4590;51.462;6.692;2023-02-18T09:34:36;101683.09;;;11.63;72.35
9110;BME280;4590;51.462;6.692;2023-02-18T09:37:02;101659.44;;;11.57;72.20
9110;BME280;4590;51.462;6.692;2023-02-18T09:39:27;101662.69;;;11.64;71.73
9110;BME280;4590;51.462;6.692;2023-02-18T09:41:55;101669.81;;;11.65;72.01
9110;BME280;4590;51.462;6.692;2023-02-18T09:44:31;101662.38;;;11.66;71.70
9110;BME280;4590;51.462;6.692;2023-02-18T09:47:05;101655.75;;;11.67;71.49
9110;BME280;4590;51.462;6.692;2023-02-18T09:49:37;101658.47;;;11.72;71.38
9110;BME280;4590;51.462;6.692;2023-02-18T09:52:16;101662.59;;;11.74;71.40
9110;BME280;4590;51.462;6.692;2023-02-18T09:54:43;101660.09;;;11.78;71.30
9110;BME280;4590;51.462;6.692;2023-02-18T09:57:20;101641.91;;;11.77;70.72
9110;BME280;4590;51.462;6.692;2023-02-18T09:59:53;101650.72;;;11.74;70.80
9110;BME280;4590;51.462;6.692;2023-02-18T10:02:20;101651.75;;;11.83;71.14
9110;BME280;4590;51.462;6.692;2023-02-18T10:04:46;101662.50;;;11.84;71.18
9110;BME280;4590;51.462;6.692;2023-02-18T10:07:32;101658.47;;;11.77;70.63
9110;BME280;4590;51.462;6.692;2023-02-18T10:10:15;101642.44;;;11.79;70.73
9110;BME280;4590;51.462;6.692;2023-02-18T10:12:43;101649.81;;;11.83;71.16
9110;BME280;4590;51.462;6.692;2023-02-18T10:15:17;101666.66;;;11.82;71.19
9110;BME280;4590;51.462;6.692;2023-02-18T10:17:44;101668.00;;;11.84;70.93
9110;BME280;4590;51.462;6.692;2023-02-18T10:20:10;101664.56;;;11.69;70.66
9110;BME280;4590;51.462;6.692;2023-02-18T10:22:40;101669.41;;;11.82;71.10
9110;BME280;4590;51.462;6.692;2023-02-18T10:25:06;101671.44;;;11.76;71.17
9110;BME280;4590;51.462;6.692;2023-02-18T10:27:35;101674.72;;;11.78;71.25
9110;BME280;4590;51.462;6.692;2023-02-18T10:30:22;101673.91;;;11.73;71.23
9110;BME280;4590;51.462;6.692;2023-02-18T10:32:52;101684.91;;;11.78;71.25
9110;BME280;4590;51.462;6.692;2023-02-18T10:35:45;101693.19;;;11.73;71.67
9110;BME280;4590;51.462;6.692;2023-02-18T10:38:31;101690.44;;;11.73;71.79
9110;BME280;4590;51.462;6.692;2023-02-18T10:41:08;101691.31;;;11.68;71.98
9110;BME280;4590;51.462;6.692;2023-02-18T10:44:04;101695.47;;;11.66;71.98
9110;BME280;4590;51.462;6.692;2023-02-18T10:47:02;101693.88;;;11.59;72.15
9110;BME280;4590;51.462;6.692;2023-02-18T10:52:15;101695.00;;;11.58;72.61
9110;BME280;4590;51.462;6.692;2023-02-18T10:54:51;101699.78;;;11.48;73.06
9110;BME280;4590;51.462;6.692;2023-02-18T10:57:20;101703.00;;;11.55;72.60
9110;BME280;4590;51.462;6.692;2023-02-18T11:00:14;101706.94;;;11.49;73.06
9110;BME280;4590;51.462;6.692;2023-02-18T11:02:41;101702.75;;;11.51;72.83
9110;BME280;4590;51.462;6.692;2023-02-18T11:05:25;101706.47;;;11.37;74.29
9110;BME280;4590;51.462;6.692;2023-02-18T11:07:54;101719.09;;;11.48;73.27
9110;BME280;4590;51.462;6.692;2023-02-18T11:10:33;101714.13;;;11.45;73.25
9110;BME280;4590;51.462;6.692;2023-02-18T11:13:01;101717.72;;;11.45;73.34
9110;BME280;4590;51.462;6.692;2023-02-18T11:15:28;101719.09;;;11.48;73.26
9110;BME280;4590;51.462;6.692;2023-02-18T11:17:56;101707.22;;;11.47;73.54
9110;BME280;4590;51.462;6.692;2023-02-18T11:20:35;101717.19;;;11.43;73.84
9110;BME280;4590;51.462;6.692;2023-02-18T11:23:15;101709.47;;;11.40;74.30
9110;BME280;4590;51.462;6.692;2023-02-18T11:25:52;101711.66;;;11.43;74.44
9110;BME280;4590;51.462;6.692;2023-02-18T11:30:46;101702.75;;;11.51;74.54
9110;BME280;4590;51.462;6.692;2023-02-18T11:33:18;101713.25;;;11.49;74.47
9110;BME280;4590;51.462;6.692;2023-02-18T11:35:49;101704.19;;;11.49;74.96
9110;BME280;4590;51.462;6.692;2023-02-18T11:38:28;101716.59;;;11.46;75.15
9110;BME280;4590;51.462;6.692;2023-02-18T11:41:06;101704.69;;;11.51;75.15
9110;BME280;4590;51.462;6.692;2023-02-18T11:43:33;101712.16;;;11.50;75.59
9110;BME280;4590;51.462;6.692;2023-02-18T11:46:09;101709.03;;;11.62;77.29
9110;BME280;4590;51.462;6.692;2023-02-18T11:48:35;101716.06;;;11.78;76.06
9110;BME280;4590;51.462;6.692;2023-02-18T11:51:01;101706.28;;;11.91;75.81
9110;BME280;4590;51.462;6.692;2023-02-18T11:55:57;101709.09;;;11.86;75.22
9110;BME280;4590;51.462;6.692;2023-02-18T11:58:23;101706.09;;;11.82;75.23
9110;BME280;4590;51.462;6.692;2023-02-18T12:00:50;101710.78;;;11.82;75.38
9110;BME280;4590;51.462;6.692;2023-02-18T12:03:42;101704.75;;;11.75;75.47
9110;BME280;4590;51.462;6.692;2023-02-18T12:06:20;101700.06;;;11.75;75.50
9110;BME280;4590;51.462;6.692;2023-02-18T12:08:51;101711.38;;;11.74;75.68
9110;BME280;4590;51.462;6.692;2023-02-18T12:11:40;101719.41;;;11.70;75.67
9110;BME280;4590;51.462;6.692;2023-02-18T12:14:20;101696.00;;;11.68;75.85
9110;BME280;4590;51.462;6.692;2023-02-18T12:17:10;101703.97;;;11.69;75.97
9110;BME280;4590;51.462;6.692;2023-02-18T12:19:52;101702.13;;;11.65;76.38
9110;BME280;4590;51.462;6.692;2023-02-18T12:27:41;101691.66;;;11.62;76.20
9110;BME280;4590;51.462;6.692;2023-02-18T12:31:01;101692.78;;;11.60;76.88
9110;BME280;4590;51.462;6.692;2023-02-18T12:41:29;101688.63;;;11.63;76.68
9110;BME280;4590;51.462;6.692;2023-02-18T12:44:22;101684.75;;;11.64;77.06
9110;BME280;4590;51.462;6.692;2023-02-18T12:49:41;101687.06;;;11.81;77.29
9110;BME280;4590;51.462;6.692;2023-02-18T12:52:12;101688.13;;;11.85;79.01
9110;BME280;4590;51.462;6.692;2023-02-18T13:11:29;101675.28;;;11.99;76.86
9110;BME280;4590;51.462;6.692;2023-02-18T13:14:07;101680.22;;;12.02;76.81
9110;BME280;4590;51.462;6.692;2023-02-18T13:16:34;101689.56;;;12.06;77.03
9110;BME280;4590;51.462;6.692;2023-02-18T13:19:10;101680.72;;;12.09;76.85
9110;BME280;4590;51.462;6.692;2023-02-18T13:21:41;101677.66;;;12.11;76.82
9110;BME280;4590;51.462;6.692;2023-02-18T13:24:32;101682.94;;;12.07;76.98
9110;BME280;4590;51.462;6.692;2023-02-18T13:27:23;101672.50;;;12.04;76.68
9110;BME280;4590;51.462;6.692;2023-02-18T13:32:39;101696.72;;;12.07;76.53
9110;BME280;4590;51.462;6.692;2023-02-18T13:35:33;101678.66;;;11.96;77.02
9110;BME280;4590;51.462;6.692;2023-02-18T13:38:30;101686.41;;;11.94;77.08
9110;BME280;4590;51.462;6.692;2023-02-18T13:41:02;101681.34;;;12.01;76.71
9110;BME280;4590;51.462;6.692;2023-02-18T13:43:32;101679.25;;;11.93;77.75
9110;BME280;4590;51.462;6.692;2023-02-18T13:51:30;101680.19;;;12.07;76.96
9110;BME280;4590;51.462;6.692;2023-02-18T13:56:49;101670.72;;;12.13;76.74
9110;BME280;4590;51.462;6.692;2023-02-18T13:59:24;101673.25;;;12.10;76.58
9110;BME280;4590;51.462;6.692;2023-02-18T14:01:53;101676.47;;;12.17;76.68
9110;BME280;4590;51.462;6.692;2023-02-18T14:09:44;101668.44;;;12.20;76.66
9110;BME280;4590;51.462;6.692;2023-02-18T14:14:53;101675.59;;;12.21;76.89
9110;BME280;4590;51.462;6.692;2023-02-18T14:22:47;101672.16;;;12.29;76.68
9110;BME280;4590;51.462;6.692;2023-02-18T14:27:39;101670.22;;;12.30;76.60
9110;BME280;4590;51.462;6.692;2023-02-18T14:30:29;101664.50;;;12.26;76.96
9110;BME280;4590;51.462;6.692;2023-02-18T14:32:59;101671.00;;;12.36;76.45
9110;BME280;4590;51.462;6.692;2023-02-18T14:36:05;101672.47;;;12.28;76.88
9110;BME280;4590;51.462;6.692;2023-02-18T14:44:22;101666.16;;;12.27;76.94
9110;BME280;4590;51.462;6.692;2023-02-18T14:47:07;101665.53;;;12.30;76.64
9110;BME280;4590;51.462;6.692;2023-02-18T14:49:47;101661.38;;;12.33;76.89
9110;BME280;4590;51.462;6.692;2023-02-18T14:52:30;101666.66;;;12.29;76.71
9110;BME280;4590;51.462;6.692;2023-02-18T14:54:57;101672.13;;;12.35;76.74
9110;BME280;4590;51.462;6.692;2023-02-18T14:57:48;101675.22;;;12.28;76.89
9110;BME280;4590;51.462;6.692;2023-02-18T15:00:18;101659.44;;;12.34;76.70
9110;BME280;4590;51.462;6.692;2023-02-18T15:02:47;101660.25;;;12.34;76.70